Terminal Aerodrome Forecast
Issued by NWS Bismarck, ND

Current Version | Previous Version | Text Only | Print | Product List | Glossary On
Versions: 1 2 3 4 5 6 7 8 9 10 11 12 13 14 15 16 17 18 19
000
FTUS43 KBIS 302320
TAFBIS
TAF
KBIS 302320Z 3100/3124 20008KT P6SM SCT150
     FM310200 09007KT P6SM SCT150
     FM310700 28006KT P6SM VCTS BKN130CB
     FM311100 29008KT P6SM BKN110
     FM311400 30013G20KT P6SM SCT150
     FM312300 28009KT P6SM SKC=

USA.gov is the U.S. government's official web portal to all federal, state and local government web resources and services.